Time;durP1;ratioP1;P1;durP2;ratioP2;P2;SDS_P1;SDS_P2;PMS_P1;PMS_P2;Temp;Humidity;BMP_temperature;BMP_pressure;BME280_temperature;BME280_humidity;BME280_pressure;Samples;Min_cycle;Max_cycle;Signal;HPM_P1;HPM_P2
2021/06/09 00:03:00;;;;;;;4.72;3.00;;;23.00;77.60;;;;;;12112392;27;20067;-79
2021/06/09 00:08:46;;;;;;;5.88;3.08;;;22.80;78.50;;;;;;12119970;27;20047;-79
2021/06/09 00:14:34;;;;;;;3.40;3.10;;;22.80;78.40;;;;;;12117469;27;20052;-79
2021/06/09 00:20:23;;;;;;;4.70;2.88;;;22.70;78.60;;;;;;12122933;27;20089;-79
2021/06/09 00:26:10;;;;;;;5.70;3.35;;;22.60;79.00;;;;;;12110654;27;20052;-78
2021/06/09 00:31:58;;;;;;;4.72;3.17;;;22.50;78.80;;;;;;12108228;27;20056;-78
2021/06/09 00:37:45;;;;;;;10.43;3.80;;;22.50;79.10;;;;;;12106322;27;20876;-78
2021/06/09 00:43:34;;;;;;;4.93;3.22;;;22.50;79.00;;;;;;12105566;27;20040;-79
2021/06/09 00:49:21;;;;;;;6.13;3.42;;;22.40;79.00;;;;;;12117804;27;20559;-79
2021/06/09 00:55:11;;;;;;;3.78;3.20;;;22.40;79.20;;;;;;12116669;27;20079;-78
2021/06/09 01:00:57;;;;;;;6.47;3.00;;;22.40;79.00;;;;;;12110487;27;20056;-79
2021/06/09 01:06:45;;;;;;;3.33;2.75;;;22.30;79.40;;;;;;12107371;27;20036;-79
2021/06/09 09:55:32;;;;;;;2.72;1.63;;;24.00;70.80;;;;;;12141639;27;20362;-77
2021/06/09 10:01:20;;;;;;;7.50;2.20;;;24.30;68.80;;;;;;12050560;28;20060;-78
2021/06/09 10:07:08;;;;;;;2.80;1.80;;;24.60;69.80;;;;;;12060339;27;20048;-78
2021/06/09 10:13:11;;;;;;;4.40;1.90;;;24.80;68.30;;;;;;12058280;28;20063;-79
2021/06/09 10:18:59;;;;;;;;;;;25.00;66.80;;;;;;12049849;28;20052;-77
2021/06/09 10:24:48;;;;;;;4.53;1.90;;;25.10;68.50;;;;;;12051032;28;20391;-77
2021/06/09 10:30:36;;;;;;;5.15;2.35;;;25.20;64.50;;;;;;12007097;28;20056;-78
2021/06/09 10:36:23;;;;;;;2.85;1.90;;;25.30;65.00;;;;;;12051531;27;20063;-77
2021/06/09 10:42:13;;;;;;;7.53;2.10;;;25.60;66.60;;;;;;12054272;28;20056;-76
2021/06/09 10:48:03;;;;;;;3.67;2.00;;;25.70;67.10;;;;;;12058554;28;20047;-80
2021/06/09 10:53:50;;;;;;;2.83;2.33;;;25.80;66.30;;;;;;12054765;28;20064;-80
2021/06/09 10:59:37;;;;;;;6.38;2.50;;;26.00;63.30;;;;;;12053502;27;20051;-80
2021/06/09 11:05:27;;;;;;;2.33;2.10;;;26.00;62.90;;;;;;12032027;28;20048;-81
2021/06/09 11:11:19;;;;;;;5.38;2.75;;;26.00;63.30;;;;;;12036143;28;20558;-80
2021/06/09 11:17:08;;;;;;;2.70;2.40;;;26.00;62.50;;;;;;12004278;28;20098;-81
2021/06/09 11:22:59;;;;;;;5.45;2.88;;;26.10;63.40;;;;;;12033449;28;20457;-79
2021/06/09 11:28:48;;;;;;;3.45;2.05;;;26.30;62.30;;;;;;12038654;28;20061;-80
2021/06/09 11:34:54;;;;;;;6.45;2.08;;;26.30;61.10;;;;;;12030751;28;20056;-80
2021/06/09 11:40:49;;;;;;;4.40;2.08;;;26.20;59.90;;;;;;12011323;28;20052;-80
2021/06/09 11:46:37;;;;;;;4.03;2.20;;;26.30;60.90;;;;;;12018575;28;20053;-81
2021/06/09 11:52:24;;;;;;;2.90;2.35;;;26.30;60.30;;;;;;12008285;28;20659;-81
2021/06/09 11:58:14;;;;;;;2.33;1.88;;;26.70;59.40;;;;;;12039403;28;20544;-82
2021/06/09 12:04:16;;;;;;;7.13;2.00;;;27.10;59.80;;;;;;12004216;28;20048;-80
2021/06/09 12:10:09;;;;;;;2.17;2.03;;;27.40;59.40;;;;;;12018278;28;20064;-83
2021/06/09 12:16:07;;;;;;;3.78;2.08;;;27.20;59.50;;;;;;12022681;28;20053;-80
2021/06/09 12:22:05;;;;;;;7.30;2.00;;;26.90;59.80;;;;;;12030116;28;20055;-80
2021/06/09 12:28:00;;;;;;;3.08;2.28;;;26.50;59.80;;;;;;12017005;28;20051;-79
2021/06/09 12:33:48;;;;;;;11.00;2.38;;;26.80;60.30;;;;;;12031457;28;20598;-81
2021/06/09 12:39:35;;;;;;;3.05;2.40;;;27.40;57.80;;;;;;12031818;28;20071;-80
2021/06/09 12:45:23;;;;;;;3.20;2.13;;;27.60;56.30;;;;;;12018603;28;20056;-80
2021/06/09 12:51:11;;;;;;;2.10;1.90;;;27.80;57.10;;;;;;11997528;28;20055;-81
2021/06/09 12:56:58;;;;;;;4.25;1.95;;;28.00;57.20;;;;;;12015015;28;20082;-81
2021/06/09 13:02:44;;;;;;;3.40;1.98;;;28.10;57.00;;;;;;12023760;28;20169;-83
2021/06/09 13:08:35;;;;;;;9.40;2.38;;;28.30;57.30;;;;;;12000985;28;20041;-82
2021/06/09 13:14:31;;;;;;;6.07;1.85;;;28.70;55.20;;;;;;12025130;28;20518;-82
2021/06/09 13:20:18;;;;;;;3.10;2.00;;;28.90;54.10;;;;;;12003306;28;20106;-82
2021/06/09 13:26:08;;;;;;;4.43;2.10;;;29.00;55.00;;;;;;12022514;28;20044;-82
2021/06/09 13:31:56;;;;;;;7.53;2.20;;;28.90;56.20;;;;;;12021500;28;20048;-80
2021/06/09 13:37:48;;;;;;;2.80;1.77;;;29.10;55.30;;;;;;12020556;28;20055;-80
2021/06/09 13:43:36;;;;;;;2.60;1.70;;;29.00;52.30;;;;;;12021912;28;20060;-81
2021/06/09 13:49:27;;;;;;;5.90;1.80;;;29.10;53.90;;;;;;12024851;28;20510;-80
2021/06/09 13:55:18;;;;;;;7.60;2.10;;;29.20;53.20;;;;;;12027344;28;20048;-80
2021/06/09 14:01:15;;;;;;;7.47;2.20;;;28.90;52.50;;;;;;11998904;28;20057;-79
2021/06/09 14:07:03;;;;;;;2.08;1.67;;;28.80;52.50;;;;;;12014404;28;20055;-80
2021/06/09 14:12:50;;;;;;;3.38;1.90;;;29.00;53.20;;;;;;12017578;28;20732;-80
2021/06/09 14:18:39;;;;;;;2.60;1.85;;;29.50;52.80;;;;;;12006343;28;20053;-77
2021/06/09 14:24:25;;;;;;;4.90;1.95;;;29.60;52.70;;;;;;12013896;28;20068;-76
2021/06/09 14:30:15;;;;;;;5.45;2.10;;;29.50;54.00;;;;;;12017952;28;20053;-78
2021/06/09 14:36:14;;;;;;;6.68;2.10;;;29.50;53.00;;;;;;12017138;28;20059;-76
2021/06/09 14:42:01;;;;;;;2.00;1.83;;;29.30;53.40;;;;;;12024168;28;20053;-77
2021/06/09 14:48:16;;;;;;;3.28;2.00;;;29.50;53.30;;;;;;12026271;28;20144;-78
2021/06/09 14:54:04;;;;;;;4.20;1.65;;;29.60;51.40;;;;;;12026133;28;20052;-77
2021/06/09 14:59:52;;;;;;;1.95;1.73;;;29.60;51.80;;;;;;12023977;28;20051;-78
2021/06/09 15:05:39;;;;;;;5.72;1.88;;;30.00;52.30;;;;;;12022471;28;20057;-78
2021/06/09 15:11:26;;;;;;;2.20;1.63;;;30.30;51.60;;;;;;12008814;28;20045;-76
2021/06/09 15:17:13;;;;;;;2.97;1.67;;;30.40;51.40;;;;;;12023284;28;20079;-78
2021/06/09 15:22:59;;;;;;;2.88;1.75;;;30.50;50.20;;;;;;12027632;28;20041;-78
2021/06/09 15:28:47;;;;;;;4.63;1.95;;;30.70;48.50;;;;;;12018102;28;20052;-78
2021/06/09 15:34:33;;;;;;;3.58;1.60;;;30.70;49.20;;;;;;12029420;28;20052;-76
2021/06/09 15:40:20;;;;;;;1.92;1.63;;;31.70;48.90;;;;;;12024664;28;20056;-78
2021/06/09 15:46:08;;;;;;;1.67;1.55;;;33.10;46.00;;;;;;12018409;28;20052;-77
2021/06/09 15:51:55;;;;;;;3.92;1.60;;;33.70;46.20;;;;;;12021103;28;20053;-77
2021/06/09 15:57:42;;;;;;;3.75;1.70;;;34.80;43.70;;;;;;12023118;28;20056;-77
2021/06/09 16:03:30;;;;;;;3.05;1.77;;;35.00;44.10;;;;;;12020812;28;20066;-78
2021/06/09 16:09:17;;;;;;;2.55;1.67;;;36.40;42.40;;;;;;12022419;28;20048;-77
2021/06/09 16:15:05;;;;;;;4.18;1.60;;;36.00;42.70;;;;;;12021200;28;20052;-79
2021/06/09 16:20:53;;;;;;;2.35;1.60;;;37.10;42.20;;;;;;12039318;28;20117;-77
2021/06/09 16:26:39;;;;;;;3.33;1.50;;;38.50;39.90;;;;;;12013945;28;20049;-78
2021/06/09 16:32:26;;;;;;;2.55;1.73;;;39.30;38.70;;;;;;12016825;28;20098;-79
2021/06/09 16:38:14;;;;;;;1.63;1.20;;;39.70;38.60;;;;;;12017158;28;20105;-78
2021/06/09 16:44:00;;;;;;;4.40;1.20;;;40.30;37.20;;;;;;12024766;28;20053;-78
2021/06/09 16:49:47;;;;;;;3.20;1.40;;;40.80;35.30;;;;;;12018455;28;20052;-77
2021/06/09 16:55:44;;;;;;;3.13;1.50;;;41.20;36.50;;;;;;12009837;28;20071;-78
2021/06/09 17:01:30;;;;;;;2.05;1.58;;;42.00;34.70;;;;;;11981640;28;20052;-77
2021/06/09 17:07:17;;;;;;;3.50;1.40;;;42.50;34.30;;;;;;11995921;28;20064;-78
2021/06/09 17:13:05;;;;;;;1.98;1.30;;;41.70;32.90;;;;;;12012003;28;20051;-78
2021/06/09 17:18:52;;;;;;;2.10;1.30;;;41.30;33.70;;;;;;12021302;28;20056;-76
2021/06/09 17:24:39;;;;;;;2.40;1.60;;;41.10;34.10;;;;;;12012368;28;20056;-77
2021/06/09 17:30:27;;;;;;;1.77;1.63;;;39.70;35.90;;;;;;12011615;28;20530;-75
2021/06/09 17:36:13;;;;;;;13.27;1.85;;;37.60;39.00;;;;;;12007607;28;20110;-76
2021/06/09 17:42:04;;;;;;;4.50;1.70;;;35.90;42.30;;;;;;11993804;28;20060;-77
2021/06/09 17:47:54;;;;;;;7.07;1.48;;;34.70;46.10;;;;;;12004560;28;21281;-76
2021/06/09 17:53:42;;;;;;;4.90;2.10;;;35.10;45.90;;;;;;11998934;28;20056;-75
2021/06/09 17:59:28;;;;;;;3.35;2.08;;;33.80;48.80;;;;;;11974240;28;20059;-77
2021/06/09 18:05:16;;;;;;;2.63;1.60;;;32.30;51.10;;;;;;11994836;28;20106;-75
2021/06/09 18:11:02;;;;;;;3.83;2.13;;;31.10;52.90;;;;;;12000999;28;20045;-76
2021/06/09 18:16:49;;;;;;;2.88;1.80;;;30.40;56.40;;;;;;12004638;28;20048;-75
2021/06/09 18:22:37;;;;;;;3.22;1.92;;;29.80;57.60;;;;;;12007357;28;20080;-77
2021/06/09 18:28:24;;;;;;;2.63;2.17;;;29.40;58.30;;;;;;12009015;28;20410;-79
2021/06/09 18:34:13;;;;;;;2.72;2.40;;;29.10;56.90;;;;;;12009849;28;20057;-77
2021/06/09 18:40:02;;;;;;;4.03;2.28;;;28.90;58.10;;;;;;11988690;28;20127;-76
2021/06/09 18:45:49;;;;;;;5.78;1.98;;;28.80;59.00;;;;;;11999659;28;20052;-76
2021/06/09 18:51:36;;;;;;;4.28;2.50;;;28.70;59.60;;;;;;12007678;28;20503;-76
2021/06/09 18:57:24;;;;;;;5.88;2.38;;;28.60;58.70;;;;;;12028071;28;20060;-77
2021/06/09 19:03:12;;;;;;;6.70;2.22;;;28.40;58.80;;;;;;12013542;28;20057;-76
2021/06/09 19:08:59;;;;;;;3.63;2.25;;;28.30;58.50;;;;;;12004379;28;20691;-77
2021/06/09 19:14:49;;;;;;;5.20;2.60;;;28.50;58.50;;;;;;12010924;28;20562;-77
2021/06/09 19:20:36;;;;;;;3.85;2.38;;;28.40;58.70;;;;;;12009590;28;20091;-77
2021/06/09 19:26:22;;;;;;;4.20;2.75;;;28.40;61.90;;;;;;12000927;28;20059;-77
2021/06/09 19:32:11;;;;;;;3.55;2.30;;;28.30;63.10;;;;;;11979804;28;20052;-76
2021/06/09 19:37:59;;;;;;;8.73;3.30;;;28.20;63.30;;;;;;11977856;28;20059;-76
2021/06/09 19:43:45;;;;;;;5.85;2.95;;;28.10;64.30;;;;;;12002841;28;20069;-77
2021/06/09 19:49:35;;;;;;;3.08;2.28;;;28.00;63.10;;;;;;12000325;28;20556;-77
2021/06/09 19:55:21;;;;;;;6.18;2.10;;;27.80;63.50;;;;;;12005944;28;20052;-76
2021/06/09 20:01:08;;;;;;;3.10;2.20;;;27.70;63.60;;;;;;12002899;28;20041;-77
2021/06/09 20:06:57;;;;;;;3.05;2.35;;;27.60;64.20;;;;;;12001682;28;20063;-76
2021/06/09 20:12:43;;;;;;;2.97;2.10;;;27.50;64.00;;;;;;12001213;28;20515;-76
2021/06/09 20:18:32;;;;;;;8.77;2.72;;;27.40;63.10;;;;;;11981464;28;20597;-76
2021/06/09 20:24:22;;;;;;;21.58;3.72;;;27.30;65.30;;;;;;12006005;28;20059;-77
2021/06/09 20:30:10;;;;;;;8.07;3.38;;;27.30;64.80;;;;;;12003226;28;20060;-77
2021/06/09 20:35:57;;;;;;;10.93;3.17;;;27.20;65.40;;;;;;12000419;28;20166;-77
2021/06/09 20:41:45;;;;;;;5.13;2.78;;;27.20;66.00;;;;;;11999247;28;20052;-76
2021/06/09 20:47:35;;;;;;;7.15;3.30;;;27.20;66.30;;;;;;12003989;28;20052;-76
2021/06/09 20:53:22;;;;;;;4.47;2.85;;;27.20;66.70;;;;;;11997521;28;20049;-76
2021/06/09 20:59:10;;;;;;;5.13;2.67;;;27.10;65.90;;;;;;12006875;28;20052;-76
2021/06/09 21:04:56;;;;;;;5.22;2.55;;;27.10;66.80;;;;;;11999667;28;20414;-76
2021/06/09 21:10:43;;;;;;;7.28;3.25;;;27.00;67.30;;;;;;12004759;28;20056;-76
2021/06/09 21:16:32;;;;;;;5.30;2.88;;;27.00;67.70;;;;;;12000352;28;20057;-75
2021/06/09 21:22:18;;;;;;;3.70;2.90;;;26.90;69.10;;;;;;12002993;28;20052;-74
2021/06/09 21:28:05;;;;;;;8.85;3.28;;;26.90;68.60;;;;;;12009391;28;20048;-75
2021/06/09 21:33:53;;;;;;;10.00;3.40;;;26.80;69.30;;;;;;11977315;28;20586;-75
2021/06/09 21:39:42;;;;;;;7.30;3.63;;;26.80;69.60;;;;;;11991230;28;20053;-76
2021/06/09 21:45:29;;;;;;;7.20;3.60;;;26.70;70.50;;;;;;11993452;28;20092;-75
2021/06/09 21:51:18;;;;;;;7.32;3.60;;;26.60;70.80;;;;;;11996836;28;20048;-75
2021/06/09 21:57:07;;;;;;;7.10;3.42;;;26.60;71.40;;;;;;11997910;28;20415;-76
2021/06/09 22:02:54;;;;;;;4.07;3.20;;;26.60;72.30;;;;;;12004323;28;20075;-76
2021/06/09 22:08:42;;;;;;;6.80;3.88;;;26.60;72.70;;;;;;12003733;28;20491;-76
2021/06/09 22:14:30;;;;;;;7.47;3.72;;;26.60;73.10;;;;;;12002834;28;20059;-75
2021/06/09 22:20:17;;;;;;;11.25;3.40;;;26.50;73.30;;;;;;11984083;28;20388;-75
2021/06/09 22:26:07;;;;;;;6.18;3.50;;;26.40;73.60;;;;;;11996526;28;20060;-74
2021/06/09 22:31:53;;;;;;;11.95;3.70;;;26.40;75.40;;;;;;11994825;28;20048;-75
2021/06/09 22:37:40;;;;;;;6.95;3.30;;;26.40;74.50;;;;;;11986265;28;20609;-75
2021/06/09 22:43:28;;;;;;;7.40;3.97;;;26.30;75.30;;;;;;11979750;28;20064;-75
2021/06/09 22:49:14;;;;;;;7.10;3.72;;;26.30;75.60;;;;;;11989693;28;20061;-75
2021/06/09 22:55:01;;;;;;;6.05;3.63;;;26.30;76.30;;;;;;11991137;28;20084;-75
2021/06/09 23:00:49;;;;;;;8.13;3.63;;;26.30;76.80;;;;;;11995748;28;20492;-76
2021/06/09 23:06:35;;;;;;;8.18;4.63;;;26.30;76.70;;;;;;12000757;28;20052;-76
2021/06/09 23:12:21;;;;;;;8.77;6.47;;;26.30;77.10;;;;;;12006967;28;20052;-75
2021/06/09 23:18:09;;;;;;;13.55;5.30;;;26.20;77.10;;;;;;12011919;28;20507;-75
2021/06/09 23:23:56;;;;;;;6.68;4.43;;;26.20;77.90;;;;;;12027014;28;20049;-75
2021/06/09 23:29:42;;;;;;;8.82;5.00;;;26.20;78.20;;;;;;12023422;28;20063;-75
2021/06/09 23:35:30;;;;;;;7.28;3.40;;;26.20;77.30;;;;;;12028725;28;20061;-76
2021/06/09 23:41:16;;;;;;;6.72;3.70;;;26.10;76.90;;;;;;12008588;28;20072;-76
2021/06/09 23:47:05;;;;;;;5.05;3.72;;;26.10;77.00;;;;;;12003435;28;20052;-75
